sensor_id;sensor_type;location;lat;lon;timestamp;temperature;humidity
9448;DHT22;4762;48.128;11.376;2023-08-06T00:04:01;14.20;99.90
9448;DHT22;4762;48.128;11.376;2023-08-06T00:06:05;14.20;99.90
9448;DHT22;4762;48.128;11.376;2023-08-06T00:10:26;14.10;99.90
9448;DHT22;4762;48.128;11.376;2023-08-06T00:12:28;14.00;99.90
9448;DHT22;4762;48.128;11.376;2023-08-06T00:14:31;13.90;99.90
9448;DHT22;4762;48.128;11.376;2023-08-06T00:16:34;13.60;99.90
9448;DHT22;4762;48.128;11.376;2023-08-06T00:18:38;13.40;99.90
9448;DHT22;4762;48.128;11.376;2023-08-06T00:20:43;13.30;99.90
9448;DHT22;4762;48.128;11.376;2023-08-06T00:22:47;13.20;99.90
9448;DHT22;4762;48.128;11.376;2023-08-06T00:24:58;13.10;99.90
9448;DHT22;4762;48.128;11.376;2023-08-06T00:27:03;13.10;99.90
9448;DHT22;4762;48.128;11.376;2023-08-06T00:29:06;13.10;99.90
9448;DHT22;4762;48.128;11.376;2023-08-06T00:31:08;13.10;99.90
9448;DHT22;4762;48.128;11.376;2023-08-06T00:33:12;13.10;99.90
9448;DHT22;4762;48.128;11.376;2023-08-06T00:35:17;13.20;99.90
9448;DHT22;4762;48.128;11.376;2023-08-06T00:37:22;13.20;99.90
9448;DHT22;4762;48.128;11.376;2023-08-06T00:42:05;13.20;99.90
9448;DHT22;4762;48.128;11.376;2023-08-06T00:44:08;13.30;99.90
9448;DHT22;4762;48.128;11.376;2023-08-06T00:46:11;13.30;99.90
9448;DHT22;4762;48.128;11.376;2023-08-06T00:48:14;13.30;99.90
9448;DHT22;4762;48.128;11.376;2023-08-06T00:50:18;13.30;99.90
9448;DHT22;4762;48.128;11.376;2023-08-06T00:52:21;13.30;99.90
9448;DHT22;4762;48.128;11.376;2023-08-06T01:04:41;13.20;99.90
9448;DHT22;4762;48.128;11.376;2023-08-06T01:06:59;13.20;99.90
9448;DHT22;4762;48.128;11.376;2023-08-06T01:09:02;13.20;99.90
9448;DHT22;4762;48.128;11.376;2023-08-06T01:13:42;13.20;99.90
9448;DHT22;4762;48.128;11.376;2023-08-06T01:15:49;13.20;99.90
9448;DHT22;4762;48.128;11.376;2023-08-06T01:17:53;13.20;99.90
9448;DHT22;4762;48.128;11.376;2023-08-06T01:19:55;13.20;99.90
9448;DHT22;4762;48.128;11.376;2023-08-06T01:22:03;13.10;99.90
9448;DHT22;4762;48.128;11.376;2023-08-06T01:24:06;13.00;99.90
9448;DHT22;4762;48.128;11.376;2023-08-06T01:47:21;12.90;99.90
9448;DHT22;4762;48.128;11.376;2023-08-06T02:02:26;12.80;99.90
9448;DHT22;4762;48.128;11.376;2023-08-06T02:09:47;12.70;99.90
9448;DHT22;4762;48.128;11.376;2023-08-06T02:19:04;12.80;99.90
9448;DHT22;4762;48.128;11.376;2023-08-06T02:39:16;12.80;99.90
9448;DHT22;4762;48.128;11.376;2023-08-06T02:51:39;12.70;99.90
9448;DHT22;4762;48.128;11.376;2023-08-06T02:53:41;12.70;99.90
9448;DHT22;4762;48.128;11.376;2023-08-06T02:55:47;12.70;99.90
9448;DHT22;4762;48.128;11.376;2023-08-06T03:42:02;12.50;99.90
9448;DHT22;4762;48.128;11.376;2023-08-06T03:46:39;12.40;99.90
9448;DHT22;4762;48.128;11.376;2023-08-06T03:51:12;12.40;99.90
9448;DHT22;4762;48.128;11.376;2023-08-06T03:58:29;12.40;99.90
9448;DHT22;4762;48.128;11.376;2023-08-06T04:11:13;12.50;99.90
9448;DHT22;4762;48.128;11.376;2023-08-06T05:18:14;12.90;99.90
9448;DHT22;4762;48.128;11.376;2023-08-06T05:41:17;13.30;99.90
9448;DHT22;4762;48.128;11.376;2023-08-06T06:01:44;13.90;99.90
9448;DHT22;4762;48.128;11.376;2023-08-06T06:11:16;14.10;99.90
9448;DHT22;4762;48.128;11.376;2023-08-06T06:13:22;14.00;99.90
9448;DHT22;4762;48.128;11.376;2023-08-06T06:18:02;14.20;99.90
9448;DHT22;4762;48.128;11.376;2023-08-06T06:22:23;15.30;99.90
9448;DHT22;4762;48.128;11.376;2023-08-06T06:24:25;15.90;99.90
9448;DHT22;4762;48.128;11.376;2023-08-06T06:26:27;15.70;99.90
9448;DHT22;4762;48.128;11.376;2023-08-06T06:28:29;15.40;99.90
9448;DHT22;4762;48.128;11.376;2023-08-06T06:30:32;15.30;99.90
9448;DHT22;4762;48.128;11.376;2023-08-06T06:32:34;15.20;99.90
9448;DHT22;4762;48.128;11.376;2023-08-06T06:36:51;15.20;99.90
9448;DHT22;4762;48.128;11.376;2023-08-06T06:38:53;15.40;99.90
9448;DHT22;4762;48.128;11.376;2023-08-06T06:40:56;15.70;99.90
9448;DHT22;4762;48.128;11.376;2023-08-06T06:42:59;15.80;99.90
9448;DHT22;4762;48.128;11.376;2023-08-06T06:45:01;16.30;99.90
9448;DHT22;4762;48.128;11.376;2023-08-06T06:47:03;16.30;99.90
9448;DHT22;4762;48.128;11.376;2023-08-06T06:49:06;16.20;99.90
9448;DHT22;4762;48.128;11.376;2023-08-06T06:51:08;16.20;99.90
9448;DHT22;4762;48.128;11.376;2023-08-06T06:53:10;16.00;99.90
9448;DHT22;4762;48.128;11.376;2023-08-06T06:55:13;16.50;99.90
9448;DHT22;4762;48.128;11.376;2023-08-06T06:57:15;17.30;99.90
9448;DHT22;4762;48.128;11.376;2023-08-06T06:59:17;17.40;99.90
9448;DHT22;4762;48.128;11.376;2023-08-06T07:01:19;17.40;99.90
9448;DHT22;4762;48.128;11.376;2023-08-06T07:03:23;17.30;99.90
9448;DHT22;4762;48.128;11.376;2023-08-06T07:05:25;16.80;99.90
9448;DHT22;4762;48.128;11.376;2023-08-06T07:07:28;16.20;99.90
9448;DHT22;4762;48.128;11.376;2023-08-06T07:09:30;15.90;99.90
9448;DHT22;4762;48.128;11.376;2023-08-06T07:11:34;15.50;99.90
9448;DHT22;4762;48.128;11.376;2023-08-06T07:13:36;15.00;99.90
9448;DHT22;4762;48.128;11.376;2023-08-06T07:15:38;14.70;99.90
9448;DHT22;4762;48.128;11.376;2023-08-06T07:17:40;14.70;99.90
9448;DHT22;4762;48.128;11.376;2023-08-06T07:19:43;14.60;99.90
9448;DHT22;4762;48.128;11.376;2023-08-06T07:21:45;14.60;99.90
9448;DHT22;4762;48.128;11.376;2023-08-06T07:23:47;14.60;99.90
9448;DHT22;4762;48.128;11.376;2023-08-06T07:25:49;14.60;99.90
9448;DHT22;4762;48.128;11.376;2023-08-06T07:27:51;14.60;99.90
9448;DHT22;4762;48.128;11.376;2023-08-06T07:29:54;14.60;99.90
9448;DHT22;4762;48.128;11.376;2023-08-06T07:31:56;14.70;99.90
9448;DHT22;4762;48.128;11.376;2023-08-06T07:33:58;14.90;99.90
9448;DHT22;4762;48.128;11.376;2023-08-06T07:36:07;15.00;99.90
9448;DHT22;4762;48.128;11.376;2023-08-06T07:38:03;15.10;99.90
9448;DHT22;4762;48.128;11.376;2023-08-06T07:40:06;15.20;99.90
9448;DHT22;4762;48.128;11.376;2023-08-06T07:42:08;15.30;99.90
9448;DHT22;4762;48.128;11.376;2023-08-06T07:44:11;15.40;99.90
9448;DHT22;4762;48.128;11.376;2023-08-06T07:46:13;15.50;99.90
9448;DHT22;4762;48.128;11.376;2023-08-06T07:48:15;15.70;99.90
9448;DHT22;4762;48.128;11.376;2023-08-06T07:50:17;16.20;99.90
9448;DHT22;4762;48.128;11.376;2023-08-06T07:52:20;17.00;99.90
9448;DHT22;4762;48.128;11.376;2023-08-06T07:54:22;17.50;99.90
9448;DHT22;4762;48.128;11.376;2023-08-06T07:56:25;18.20;99.90
9448;DHT22;4762;48.128;11.376;2023-08-06T07:58:27;18.40;99.90
9448;DHT22;4762;48.128;11.376;2023-08-06T08:00:29;18.80;95.20
9448;DHT22;4762;48.128;11.376;2023-08-06T08:02:32;18.90;96.60
9448;DHT22;4762;48.128;11.376;2023-08-06T08:04:34;19.10;92.00
9448;DHT22;4762;48.128;11.376;2023-08-06T08:06:36;18.70;88.60
9448;DHT22;4762;48.128;11.376;2023-08-06T08:08:39;18.30;93.70
9448;DHT22;4762;48.128;11.376;2023-08-06T08:10:41;17.80;92.00
9448;DHT22;4762;48.128;11.376;2023-08-06T08:12:44;17.70;94.80
9448;DHT22;4762;48.128;11.376;2023-08-06T08:14:46;17.70;96.00
9448;DHT22;4762;48.128;11.376;2023-08-06T08:16:49;17.40;92.70
9448;DHT22;4762;48.128;11.376;2023-08-06T08:18:52;17.50;91.20
9448;DHT22;4762;48.128;11.376;2023-08-06T08:20:54;17.30;91.10
9448;DHT22;4762;48.128;11.376;2023-08-06T08:22:56;17.30;92.30
9448;DHT22;4762;48.128;11.376;2023-08-06T08:24:58;17.30;91.00
9448;DHT22;4762;48.128;11.376;2023-08-06T08:27:00;17.40;89.70
9448;DHT22;4762;48.128;11.376;2023-08-06T08:29:03;17.20;90.30
9448;DHT22;4762;48.128;11.376;2023-08-06T08:31:07;17.10;90.20
9448;DHT22;4762;48.128;11.376;2023-08-06T08:33:07;17.10;90.60
9448;DHT22;4762;48.128;11.376;2023-08-06T08:35:09;17.10;89.60
9448;DHT22;4762;48.128;11.376;2023-08-06T08:37:12;16.60;90.80
9448;DHT22;4762;48.128;11.376;2023-08-06T08:39:14;16.50;90.90
9448;DHT22;4762;48.128;11.376;2023-08-06T08:41:16;16.40;92.50
9448;DHT22;4762;48.128;11.376;2023-08-06T08:43:19;16.50;91.60
9448;DHT22;4762;48.128;11.376;2023-08-06T08:45:20;16.70;90.80
9448;DHT22;4762;48.128;11.376;2023-08-06T08:47:24;16.90;90.00
9448;DHT22;4762;48.128;11.376;2023-08-06T08:49:27;16.80;90.90
9448;DHT22;4762;48.128;11.376;2023-08-06T08:51:30;16.90;91.50
9448;DHT22;4762;48.128;11.376;2023-08-06T08:53:32;16.80;90.40
9448;DHT22;4762;48.128;11.376;2023-08-06T08:55:34;16.60;91.10
9448;DHT22;4762;48.128;11.376;2023-08-06T08:57:37;16.60;91.90
9448;DHT22;4762;48.128;11.376;2023-08-06T08:59:39;16.50;96.60
9448;DHT22;4762;48.128;11.376;2023-08-06T09:01:42;16.20;98.80
9448;DHT22;4762;48.128;11.376;2023-08-06T09:03:44;15.80;99.90
9448;DHT22;4762;48.128;11.376;2023-08-06T09:05:48;15.60;99.90
9448;DHT22;4762;48.128;11.376;2023-08-06T09:07:49;15.70;99.90
9448;DHT22;4762;48.128;11.376;2023-08-06T09:09:53;15.70;99.90
9448;DHT22;4762;48.128;11.376;2023-08-06T09:11:55;15.70;99.90
9448;DHT22;4762;48.128;11.376;2023-08-06T09:13:57;15.70;99.90
9448;DHT22;4762;48.128;11.376;2023-08-06T09:16:00;15.70;98.90
9448;DHT22;4762;48.128;11.376;2023-08-06T09:18:08;15.60;99.70
9448;DHT22;4762;48.128;11.376;2023-08-06T09:20:11;15.80;96.30
9448;DHT22;4762;48.128;11.376;2023-08-06T09:22:13;15.80;97.40
9448;DHT22;4762;48.128;11.376;2023-08-06T09:24:16;15.80;99.90
9448;DHT22;4762;48.128;11.376;2023-08-06T09:26:18;16.00;99.70
9448;DHT22;4762;48.128;11.376;2023-08-06T09:28:21;16.30;96.40
9448;DHT22;4762;48.128;11.376;2023-08-06T09:30:30;16.60;97.20
9448;DHT22;4762;48.128;11.376;2023-08-06T09:34:46;16.90;91.60
9448;DHT22;4762;48.128;11.376;2023-08-06T09:36:50;16.90;93.60
9448;DHT22;4762;48.128;11.376;2023-08-06T09:38:52;16.60;91.70
9448;DHT22;4762;48.128;11.376;2023-08-06T09:40:55;16.50;89.60
9448;DHT22;4762;48.128;11.376;2023-08-06T09:42:58;16.40;92.00
9448;DHT22;4762;48.128;11.376;2023-08-06T09:45:05;16.50;90.10
9448;DHT22;4762;48.128;11.376;2023-08-06T09:47:03;16.70;92.40
9448;DHT22;4762;48.128;11.376;2023-08-06T09:49:05;16.80;91.20
9448;DHT22;4762;48.128;11.376;2023-08-06T09:51:08;17.00;90.30
9448;DHT22;4762;48.128;11.376;2023-08-06T09:53:18;17.10;90.00
9448;DHT22;4762;48.128;11.376;2023-08-06T09:55:22;17.00;87.60
9448;DHT22;4762;48.128;11.376;2023-08-06T09:57:24;16.60;89.40
9448;DHT22;4762;48.128;11.376;2023-08-06T09:59:26;16.40;90.10
9448;DHT22;4762;48.128;11.376;2023-08-06T10:01:28;16.50;89.60
9448;DHT22;4762;48.128;11.376;2023-08-06T10:03:31;16.50;91.80
9448;DHT22;4762;48.128;11.376;2023-08-06T10:05:34;16.20;89.80
9448;DHT22;4762;48.128;11.376;2023-08-06T10:07:36;16.40;90.50
9448;DHT22;4762;48.128;11.376;2023-08-06T10:09:38;16.40;90.40
9448;DHT22;4762;48.128;11.376;2023-08-06T10:11:45;16.40;90.10
9448;DHT22;4762;48.128;11.376;2023-08-06T10:13:47;16.50;89.50
9448;DHT22;4762;48.128;11.376;2023-08-06T10:15:50;17.10;89.10
9448;DHT22;4762;48.128;11.376;2023-08-06T10:17:54;17.50;87.80
9448;DHT22;4762;48.128;11.376;2023-08-06T10:19:55;17.30;87.00
9448;DHT22;4762;48.128;11.376;2023-08-06T10:22:11;17.10;87.30
9448;DHT22;4762;48.128;11.376;2023-08-06T10:24:13;16.70;87.00
9448;DHT22;4762;48.128;11.376;2023-08-06T10:26:16;16.60;89.50
9448;DHT22;4762;48.128;11.376;2023-08-06T10:28:17;16.50;91.10
9448;DHT22;4762;48.128;11.376;2023-08-06T10:30:43;16.30;88.30
9448;DHT22;4762;48.128;11.376;2023-08-06T10:32:47;16.30;91.00
9448;DHT22;4762;48.128;11.376;2023-08-06T10:34:54;16.50;92.10
9448;DHT22;4762;48.128;11.376;2023-08-06T10:36:55;16.50;91.40
9448;DHT22;4762;48.128;11.376;2023-08-06T10:38:58;16.60;90.90
9448;DHT22;4762;48.128;11.376;2023-08-06T10:41:03;16.60;90.30
9448;DHT22;4762;48.128;11.376;2023-08-06T10:43:04;16.90;91.30
9448;DHT22;4762;48.128;11.376;2023-08-06T10:45:14;17.10;86.50
9448;DHT22;4762;48.128;11.376;2023-08-06T10:49:26;16.80;89.20
9448;DHT22;4762;48.128;11.376;2023-08-06T10:51:28;16.80;88.00
9448;DHT22;4762;48.128;11.376;2023-08-06T10:53:30;17.10;84.40
9448;DHT22;4762;48.128;11.376;2023-08-06T10:55:32;17.10;83.40
9448;DHT22;4762;48.128;11.376;2023-08-06T10:57:35;17.50;83.70
9448;DHT22;4762;48.128;11.376;2023-08-06T10:59:37;17.30;81.90
9448;DHT22;4762;48.128;11.376;2023-08-06T11:01:40;17.30;84.90
9448;DHT22;4762;48.128;11.376;2023-08-06T11:03:42;17.30;83.40
9448;DHT22;4762;48.128;11.376;2023-08-06T11:05:48;17.30;84.30
9448;DHT22;4762;48.128;11.376;2023-08-06T11:07:50;17.10;84.60
9448;DHT22;4762;48.128;11.376;2023-08-06T11:09:52;17.00;85.90
9448;DHT22;4762;48.128;11.376;2023-08-06T11:11:55;17.00;85.80
9448;DHT22;4762;48.128;11.376;2023-08-06T11:13:57;17.00;88.30
9448;DHT22;4762;48.128;11.376;2023-08-06T11:15:59;16.90;90.20
9448;DHT22;4762;48.128;11.376;2023-08-06T11:18:03;16.90;88.10
9448;DHT22;4762;48.128;11.376;2023-08-06T11:20:07;16.90;88.40
9448;DHT22;4762;48.128;11.376;2023-08-06T11:22:09;17.10;90.40
9448;DHT22;4762;48.128;11.376;2023-08-06T11:24:11;16.90;93.50
9448;DHT22;4762;48.128;11.376;2023-08-06T11:26:19;16.50;95.40
9448;DHT22;4762;48.128;11.376;2023-08-06T11:28:21;16.10;97.50
9448;DHT22;4762;48.128;11.376;2023-08-06T11:30:26;16.00;98.60
9448;DHT22;4762;48.128;11.376;2023-08-06T11:32:27;16.10;95.10
9448;DHT22;4762;48.128;11.376;2023-08-06T11:34:32;16.50;94.20
9448;DHT22;4762;48.128;11.376;2023-08-06T11:36:40;17.30;92.40
9448;DHT22;4762;48.128;11.376;2023-08-06T11:38:40;17.70;87.80
9448;DHT22;4762;48.128;11.376;2023-08-06T11:40:44;17.80;90.60
9448;DHT22;4762;48.128;11.376;2023-08-06T11:42:46;17.70;84.90
9448;DHT22;4762;48.128;11.376;2023-08-06T11:44:48;17.60;84.80
9448;DHT22;4762;48.128;11.376;2023-08-06T11:46:53;17.70;84.30
9448;DHT22;4762;48.128;11.376;2023-08-06T11:48:56;17.20;84.50
9448;DHT22;4762;48.128;11.376;2023-08-06T11:50:58;17.00;88.20
9448;DHT22;4762;48.128;11.376;2023-08-06T11:53:00;17.30;89.80
9448;DHT22;4762;48.128;11.376;2023-08-06T11:55:04;17.50;88.90
9448;DHT22;4762;48.128;11.376;2023-08-06T11:57:09;17.20;90.30
9448;DHT22;4762;48.128;11.376;2023-08-06T11:59:11;16.90;90.70
9448;DHT22;4762;48.128;11.376;2023-08-06T12:01:13;16.50;91.40
9448;DHT22;4762;48.128;11.376;2023-08-06T12:03:15;16.60;90.80
9448;DHT22;4762;48.128;11.376;2023-08-06T12:05:19;16.60;91.30
9448;DHT22;4762;48.128;11.376;2023-08-06T12:07:25;16.90;91.60
9448;DHT22;4762;48.128;11.376;2023-08-06T12:09:25;16.90;90.70
9448;DHT22;4762;48.128;11.376;2023-08-06T12:11:29;17.20;89.30
9448;DHT22;4762;48.128;11.376;2023-08-06T12:13:31;17.00;90.20
9448;DHT22;4762;48.128;11.376;2023-08-06T12:15:33;17.00;87.40
9448;DHT22;4762;48.128;11.376;2023-08-06T12:17:36;16.90;89.40
9448;DHT22;4762;48.128;11.376;2023-08-06T12:19:39;17.20;88.50
9448;DHT22;4762;48.128;11.376;2023-08-06T12:21:41;17.50;85.90
9448;DHT22;4762;48.128;11.376;2023-08-06T12:23:44;17.40;86.00
9448;DHT22;4762;48.128;11.376;2023-08-06T12:25:46;17.30;84.20
9448;DHT22;4762;48.128;11.376;2023-08-06T12:27:48;17.20;84.90
9448;DHT22;4762;48.128;11.376;2023-08-06T12:29:51;17.10;86.60
9448;DHT22;4762;48.128;11.376;2023-08-06T12:31:53;16.80;85.70
9448;DHT22;4762;48.128;11.376;2023-08-06T12:33:56;16.60;89.80
9448;DHT22;4762;48.128;11.376;2023-08-06T12:35:58;15.90;97.80
9448;DHT22;4762;48.128;11.376;2023-08-06T12:38:01;15.50;99.90
9448;DHT22;4762;48.128;11.376;2023-08-06T12:40:03;15.50;99.90
9448;DHT22;4762;48.128;11.376;2023-08-06T12:42:06;15.50;99.90
9448;DHT22;4762;48.128;11.376;2023-08-06T12:44:09;15.50;99.90
9448;DHT22;4762;48.128;11.376;2023-08-06T12:46:11;15.50;99.90
9448;DHT22;4762;48.128;11.376;2023-08-06T12:48:14;15.60;99.90
9448;DHT22;4762;48.128;11.376;2023-08-06T12:50:16;15.80;99.90
9448;DHT22;4762;48.128;11.376;2023-08-06T12:52:18;16.00;99.90
9448;DHT22;4762;48.128;11.376;2023-08-06T12:54:20;16.10;99.90
9448;DHT22;4762;48.128;11.376;2023-08-06T12:56:23;16.00;99.90
9448;DHT22;4762;48.128;11.376;2023-08-06T12:58:26;16.00;99.90
9448;DHT22;4762;48.128;11.376;2023-08-06T13:00:28;16.10;99.90
9448;DHT22;4762;48.128;11.376;2023-08-06T13:02:30;16.50;99.90
9448;DHT22;4762;48.128;11.376;2023-08-06T13:04:32;16.40;99.90
9448;DHT22;4762;48.128;11.376;2023-08-06T13:06:34;16.50;99.90
9448;DHT22;4762;48.128;11.376;2023-08-06T13:08:37;15.80;99.90
9448;DHT22;4762;48.128;11.376;2023-08-06T13:10:40;15.60;99.90
9448;DHT22;4762;48.128;11.376;2023-08-06T13:12:43;15.10;99.90
9448;DHT22;4762;48.128;11.376;2023-08-06T13:14:45;14.90;99.90
9448;DHT22;4762;48.128;11.376;2023-08-06T13:16:47;15.00;99.90
9448;DHT22;4762;48.128;11.376;2023-08-06T13:18:49;14.90;99.90
9448;DHT22;4762;48.128;11.376;2023-08-06T13:20:53;14.80;99.90
9448;DHT22;4762;48.128;11.376;2023-08-06T13:22:54;14.60;99.90
9448;DHT22;4762;48.128;11.376;2023-08-06T13:24:57;14.70;99.90
9448;DHT22;4762;48.128;11.376;2023-08-06T13:26:59;14.70;99.90
9448;DHT22;4762;48.128;11.376;2023-08-06T13:29:01;14.60;99.90
9448;DHT22;4762;48.128;11.376;2023-08-06T13:31:04;14.70;99.90
9448;DHT22;4762;48.128;11.376;2023-08-06T13:33:08;14.90;99.90
9448;DHT22;4762;48.128;11.376;2023-08-06T13:35:10;15.10;99.90
9448;DHT22;4762;48.128;11.376;2023-08-06T13:37:12;15.10;99.90
9448;DHT22;4762;48.128;11.376;2023-08-06T13:39:14;15.10;99.90
9448;DHT22;4762;48.128;11.376;2023-08-06T13:41:17;15.10;99.90
9448;DHT22;4762;48.128;11.376;2023-08-06T13:43:19;15.20;99.90
9448;DHT22;4762;48.128;11.376;2023-08-06T13:45:22;15.00;99.90
9448;DHT22;4762;48.128;11.376;2023-08-06T13:47:25;14.70;99.90
9448;DHT22;4762;48.128;11.376;2023-08-06T13:49:27;14.60;99.90
9448;DHT22;4762;48.128;11.376;2023-08-06T13:51:30;14.30;99.90
9448;DHT22;4762;48.128;11.376;2023-08-06T13:53:32;14.30;99.90
9448;DHT22;4762;48.128;11.376;2023-08-06T13:55:35;14.30;99.90
9448;DHT22;4762;48.128;11.376;2023-08-06T13:57:37;14.40;99.90
9448;DHT22;4762;48.128;11.376;2023-08-06T13:59:40;14.20;99.90
9448;DHT22;4762;48.128;11.376;2023-08-06T14:01:43;14.30;99.90
9448;DHT22;4762;48.128;11.376;2023-08-06T14:03:45;14.40;99.90
9448;DHT22;4762;48.128;11.376;2023-08-06T14:05:47;14.20;99.90
9448;DHT22;4762;48.128;11.376;2023-08-06T14:10:27;14.00;99.90
9448;DHT22;4762;48.128;11.376;2023-08-06T14:12:30;13.80;99.90
9448;DHT22;4762;48.128;11.376;2023-08-06T14:14:32;13.70;99.90
9448;DHT22;4762;48.128;11.376;2023-08-06T14:16:34;13.60;99.90
9448;DHT22;4762;48.128;11.376;2023-08-06T14:18:37;13.50;99.90
9448;DHT22;4762;48.128;11.376;2023-08-06T14:20:39;13.30;99.90
9448;DHT22;4762;48.128;11.376;2023-08-06T14:22:41;13.10;99.90
9448;DHT22;4762;48.128;11.376;2023-08-06T14:24:45;13.00;99.90
9448;DHT22;4762;48.128;11.376;2023-08-06T14:26:49;12.70;99.90
9448;DHT22;4762;48.128;11.376;2023-08-06T14:28:51;12.60;99.90
9448;DHT22;4762;48.128;11.376;2023-08-06T14:30:53;12.50;99.90
9448;DHT22;4762;48.128;11.376;2023-08-06T14:32:55;12.50;99.90
9448;DHT22;4762;48.128;11.376;2023-08-06T14:34:58;12.60;99.90
9448;DHT22;4762;48.128;11.376;2023-08-06T14:37:00;12.70;99.90
9448;DHT22;4762;48.128;11.376;2023-08-06T14:39:03;12.80;99.90
9448;DHT22;4762;48.128;11.376;2023-08-06T14:41:05;12.70;99.90
9448;DHT22;4762;48.128;11.376;2023-08-06T14:43:07;12.70;99.90
9448;DHT22;4762;48.128;11.376;2023-08-06T14:45:10;12.60;99.90
9448;DHT22;4762;48.128;11.376;2023-08-06T14:49:44;12.70;99.90
9448;DHT22;4762;48.128;11.376;2023-08-06T14:51:47;12.60;99.90
9448;DHT22;4762;48.128;11.376;2023-08-06T14:53:53;12.50;99.90
9448;DHT22;4762;48.128;11.376;2023-08-06T14:55:55;12.40;99.90
9448;DHT22;4762;48.128;11.376;2023-08-06T14:57:58;12.40;99.90
9448;DHT22;4762;48.128;11.376;2023-08-06T15:00:01;12.50;99.90
9448;DHT22;4762;48.128;11.376;2023-08-06T15:02:04;12.70;99.90
9448;DHT22;4762;48.128;11.376;2023-08-06T15:04:06;12.70;99.90
9448;DHT22;4762;48.128;11.376;2023-08-06T15:06:09;12.80;99.90
9448;DHT22;4762;48.128;11.376;2023-08-06T15:08:11;13.10;99.90
9448;DHT22;4762;48.128;11.376;2023-08-06T15:10:15;13.20;99.90
9448;DHT22;4762;48.128;11.376;2023-08-06T15:12:17;13.40;99.90
9448;DHT22;4762;48.128;11.376;2023-08-06T15:14:19;13.20;99.90
9448;DHT22;4762;48.128;11.376;2023-08-06T15:16:21;13.10;99.90
9448;DHT22;4762;48.128;11.376;2023-08-06T15:18:24;13.20;99.90
9448;DHT22;4762;48.128;11.376;2023-08-06T15:20:26;13.30;99.90
9448;DHT22;4762;48.128;11.376;2023-08-06T15:22:29;13.40;99.90
9448;DHT22;4762;48.128;11.376;2023-08-06T15:24:31;13.20;99.90
9448;DHT22;4762;48.128;11.376;2023-08-06T15:26:33;13.10;99.90
9448;DHT22;4762;48.128;11.376;2023-08-06T15:28:36;12.80;99.90
9448;DHT22;4762;48.128;11.376;2023-08-06T15:30:39;12.70;99.90
9448;DHT22;4762;48.128;11.376;2023-08-06T15:32:41;12.40;99.90
9448;DHT22;4762;48.128;11.376;2023-08-06T15:34:50;12.40;99.90
9448;DHT22;4762;48.128;11.376;2023-08-06T15:36:53;12.50;99.90
9448;DHT22;4762;48.128;11.376;2023-08-06T15:38:56;12.40;99.90
9448;DHT22;4762;48.128;11.376;2023-08-06T15:41:00;12.40;99.90
9448;DHT22;4762;48.128;11.376;2023-08-06T15:45:23;12.40;99.90
9448;DHT22;4762;48.128;11.376;2023-08-06T15:47:25;12.40;99.90
9448;DHT22;4762;48.128;11.376;2023-08-06T15:52:07;12.40;99.90
9448;DHT22;4762;48.128;11.376;2023-08-06T15:54:10;12.50;99.90
9448;DHT22;4762;48.128;11.376;2023-08-06T15:56:12;12.60;99.90
9448;DHT22;4762;48.128;11.376;2023-08-06T15:58:15;12.60;99.90
9448;DHT22;4762;48.128;11.376;2023-08-06T16:00:18;12.60;99.90
9448;DHT22;4762;48.128;11.376;2023-08-06T16:02:21;12.70;99.90
9448;DHT22;4762;48.128;11.376;2023-08-06T16:04:23;12.70;99.90
9448;DHT22;4762;48.128;11.376;2023-08-06T16:06:26;12.60;99.90
9448;DHT22;4762;48.128;11.376;2023-08-06T16:08:29;12.60;99.90
9448;DHT22;4762;48.128;11.376;2023-08-06T16:10:32;12.50;99.90
9448;DHT22;4762;48.128;11.376;2023-08-06T16:12:35;12.50;99.90
9448;DHT22;4762;48.128;11.376;2023-08-06T16:14:37;12.40;99.90
9448;DHT22;4762;48.128;11.376;2023-08-06T16:16:39;12.50;99.90
9448;DHT22;4762;48.128;11.376;2023-08-06T16:18:42;12.50;99.90
9448;DHT22;4762;48.128;11.376;2023-08-06T16:20:44;12.50;99.90
9448;DHT22;4762;48.128;11.376;2023-08-06T16:22:46;12.40;99.90
9448;DHT22;4762;48.128;11.376;2023-08-06T16:24:48;12.50;99.90
9448;DHT22;4762;48.128;11.376;2023-08-06T16:26:51;12.50;99.90
9448;DHT22;4762;48.128;11.376;2023-08-06T16:28:53;12.50;99.90
9448;DHT22;4762;48.128;11.376;2023-08-06T16:30:55;12.50;99.90
9448;DHT22;4762;48.128;11.376;2023-08-06T16:32:58;12.40;99.90
9448;DHT22;4762;48.128;11.376;2023-08-06T16:35:01;12.40;99.90
9448;DHT22;4762;48.128;11.376;2023-08-06T16:37:03;12.20;99.90
9448;DHT22;4762;48.128;11.376;2023-08-06T16:39:10;12.20;99.90
9448;DHT22;4762;48.128;11.376;2023-08-06T16:41:12;12.20;99.90
9448;DHT22;4762;48.128;11.376;2023-08-06T16:43:15;12.30;99.90
9448;DHT22;4762;48.128;11.376;2023-08-06T16:45:17;12.30;99.90
9448;DHT22;4762;48.128;11.376;2023-08-06T16:47:19;12.40;99.90
9448;DHT22;4762;48.128;11.376;2023-08-06T16:49:22;12.40;99.90
9448;DHT22;4762;48.128;11.376;2023-08-06T16:51:24;12.50;99.90
9448;DHT22;4762;48.128;11.376;2023-08-06T16:53:26;12.50;99.90
9448;DHT22;4762;48.128;11.376;2023-08-06T16:55:31;12.60;99.90
9448;DHT22;4762;48.128;11.376;2023-08-06T16:57:34;12.60;99.90
9448;DHT22;4762;48.128;11.376;2023-08-06T16:59:36;12.70;99.90
9448;DHT22;4762;48.128;11.376;2023-08-06T17:01:39;12.60;99.90
9448;DHT22;4762;48.128;11.376;2023-08-06T17:03:42;12.60;99.90
9448;DHT22;4762;48.128;11.376;2023-08-06T17:05:44;12.60;99.90
9448;DHT22;4762;48.128;11.376;2023-08-06T17:07:47;12.60;99.90
9448;DHT22;4762;48.128;11.376;2023-08-06T17:09:50;12.60;99.90
9448;DHT22;4762;48.128;11.376;2023-08-06T17:11:53;12.60;99.90
9448;DHT22;4762;48.128;11.376;2023-08-06T17:13:55;12.60;99.90
9448;DHT22;4762;48.128;11.376;2023-08-06T17:15:57;12.60;99.90
9448;DHT22;4762;48.128;11.376;2023-08-06T17:18:00;12.60;99.90
9448;DHT22;4762;48.128;11.376;2023-08-06T17:20:13;12.60;99.90
9448;DHT22;4762;48.128;11.376;2023-08-06T17:22:16;12.30;99.90
9448;DHT22;4762;48.128;11.376;2023-08-06T17:24:19;12.30;99.90
9448;DHT22;4762;48.128;11.376;2023-08-06T17:26:29;12.40;99.90
9448;DHT22;4762;48.128;11.376;2023-08-06T17:28:34;12.40;99.90
9448;DHT22;4762;48.128;11.376;2023-08-06T17:30:40;12.40;99.90
9448;DHT22;4762;48.128;11.376;2023-08-06T17:32:42;12.50;99.90
9448;DHT22;4762;48.128;11.376;2023-08-06T17:34:45;12.50;99.90
9448;DHT22;4762;48.128;11.376;2023-08-06T17:36:47;12.50;99.90
9448;DHT22;4762;48.128;11.376;2023-08-06T17:38:49;12.50;99.90
9448;DHT22;4762;48.128;11.376;2023-08-06T17:40:53;12.50;99.90
9448;DHT22;4762;48.128;11.376;2023-08-06T17:42:56;12.50;99.90
9448;DHT22;4762;48.128;11.376;2023-08-06T17:52:27;12.40;99.90
9448;DHT22;4762;48.128;11.376;2023-08-06T17:54:30;12.30;99.90
9448;DHT22;4762;48.128;11.376;2023-08-06T17:59:10;12.20;99.90
9448;DHT22;4762;48.128;11.376;2023-08-06T18:01:13;12.20;99.90
9448;DHT22;4762;48.128;11.376;2023-08-06T18:03:22;12.20;99.90
9448;DHT22;4762;48.128;11.376;2023-08-06T18:05:25;12.10;99.90
9448;DHT22;4762;48.128;11.376;2023-08-06T18:07:28;12.10;99.90
9448;DHT22;4762;48.128;11.376;2023-08-06T18:12:12;12.00;99.90
9448;DHT22;4762;48.128;11.376;2023-08-06T18:16:52;12.00;99.90
9448;DHT22;4762;48.128;11.376;2023-08-06T18:21:34;12.00;99.90